sensor_id;sensor_type;location;lat;lon;timestamp;P1;durP1;ratioP1;P2;durP2;ratioP2
15218;SDS011;15623;53.986;11.676;2023-06-14T00:01:38;10.40;;;4.80;;
15218;SDS011;15623;53.986;11.676;2023-06-14T00:04:06;9.80;;;4.50;;
15218;SDS011;15623;53.986;11.676;2023-06-14T00:06:36;4.83;;;4.40;;
15218;SDS011;15623;53.986;11.676;2023-06-14T00:09:14;9.47;;;4.20;;
15218;SDS011;15623;53.986;11.676;2023-06-14T00:11:50;7.93;;;4.83;;
15218;SDS011;15623;53.986;11.676;2023-06-14T00:14:25;5.77;;;4.67;;
15218;SDS011;15623;53.986;11.676;2023-06-14T00:17:00;6.77;;;4.27;;
15218;SDS011;15623;53.986;11.676;2023-06-14T00:19:27;7.30;;;4.70;;
15218;SDS011;15623;53.986;11.676;2023-06-14T00:22:03;8.67;;;5.13;;
15218;SDS011;15623;53.986;11.676;2023-06-14T00:24:34;5.33;;;4.60;;
15218;SDS011;15623;53.986;11.676;2023-06-14T00:29:38;11.20;;;4.60;;
15218;SDS011;15623;53.986;11.676;2023-06-14T00:32:08;8.47;;;4.80;;
15218;SDS011;15623;53.986;11.676;2023-06-14T00:37:26;6.53;;;4.70;;
15218;SDS011;15623;53.986;11.676;2023-06-14T00:39:59;6.90;;;4.90;;
15218;SDS011;15623;53.986;11.676;2023-06-14T00:42:27;9.00;;;5.27;;
15218;SDS011;15623;53.986;11.676;2023-06-14T00:44:56;7.20;;;4.97;;
15218;SDS011;15623;53.986;11.676;2023-06-14T00:50:12;6.43;;;4.77;;
15218;SDS011;15623;53.986;11.676;2023-06-14T00:55:21;6.73;;;4.80;;
15218;SDS011;15623;53.986;11.676;2023-06-14T00:57:50;8.33;;;4.80;;
15218;SDS011;15623;53.986;11.676;2023-06-14T01:00:24;8.97;;;5.03;;
15218;SDS011;15623;53.986;11.676;2023-06-14T01:02:53;5.77;;;4.77;;
15218;SDS011;15623;53.986;11.676;2023-06-14T01:05:24;10.43;;;5.10;;
15218;SDS011;15623;53.986;11.676;2023-06-14T01:10:43;6.70;;;4.93;;
15218;SDS011;15623;53.986;11.676;2023-06-14T01:13:20;6.47;;;4.87;;
15218;SDS011;15623;53.986;11.676;2023-06-14T01:15:50;9.40;;;5.07;;
15218;SDS011;15623;53.986;11.676;2023-06-14T01:18:20;10.17;;;5.43;;
15218;SDS011;15623;53.986;11.676;2023-06-14T01:20:52;7.23;;;5.10;;
15218;SDS011;15623;53.986;11.676;2023-06-14T01:23:23;6.77;;;5.07;;
15218;SDS011;15623;53.986;11.676;2023-06-14T01:26:02;8.50;;;5.00;;
15218;SDS011;15623;53.986;11.676;2023-06-14T01:28:31;7.70;;;4.80;;
15218;SDS011;15623;53.986;11.676;2023-06-14T01:31:02;6.27;;;4.90;;
15218;SDS011;15623;53.986;11.676;2023-06-14T01:33:30;8.90;;;5.33;;
15218;SDS011;15623;53.986;11.676;2023-06-14T01:36:17;9.13;;;6.00;;
15218;SDS011;15623;53.986;11.676;2023-06-14T01:38:51;5.97;;;5.30;;
15218;SDS011;15623;53.986;11.676;2023-06-14T01:41:21;7.33;;;5.30;;
15218;SDS011;15623;53.986;11.676;2023-06-14T01:43:50;10.17;;;5.80;;
15218;SDS011;15623;53.986;11.676;2023-06-14T01:46:19;6.93;;;5.33;;
15218;SDS011;15623;53.986;11.676;2023-06-14T01:48:53;9.70;;;5.67;;
15218;SDS011;15623;53.986;11.676;2023-06-14T01:51:21;7.60;;;5.80;;
15218;SDS011;15623;53.986;11.676;2023-06-14T01:53:52;8.67;;;5.77;;
15218;SDS011;15623;53.986;11.676;2023-06-14T01:56:20;10.13;;;6.50;;
15218;SDS011;15623;53.986;11.676;2023-06-14T01:58:50;11.17;;;6.10;;
15218;SDS011;15623;53.986;11.676;2023-06-14T02:01:25;8.40;;;6.20;;
15218;SDS011;15623;53.986;11.676;2023-06-14T02:03:54;9.00;;;6.30;;
15218;SDS011;15623;53.986;11.676;2023-06-14T02:06:21;10.27;;;6.73;;
15218;SDS011;15623;53.986;11.676;2023-06-14T02:08:50;7.03;;;6.43;;
15218;SDS011;15623;53.986;11.676;2023-06-14T02:11:26;9.10;;;6.23;;
15218;SDS011;15623;53.986;11.676;2023-06-14T02:14:00;8.90;;;6.47;;
15218;SDS011;15623;53.986;11.676;2023-06-14T02:16:28;7.60;;;6.07;;
15218;SDS011;15623;53.986;11.676;2023-06-14T02:18:56;8.13;;;5.90;;
15218;SDS011;15623;53.986;11.676;2023-06-14T02:21:25;8.23;;;6.60;;
15218;SDS011;15623;53.986;11.676;2023-06-14T02:29:11;8.03;;;7.20;;
15218;SDS011;15623;53.986;11.676;2023-06-14T02:31:41;10.70;;;7.07;;
15218;SDS011;15623;53.986;11.676;2023-06-14T02:34:15;10.27;;;7.40;;
15218;SDS011;15623;53.986;11.676;2023-06-14T02:36:55;9.37;;;7.67;;
15218;SDS011;15623;53.986;11.676;2023-06-14T02:39:29;13.73;;;7.87;;
15218;SDS011;15623;53.986;11.676;2023-06-14T02:41:56;12.37;;;7.70;;
15218;SDS011;15623;53.986;11.676;2023-06-14T02:44:30;9.37;;;7.73;;
15218;SDS011;15623;53.986;11.676;2023-06-14T02:47:05;8.97;;;7.30;;
15218;SDS011;15623;53.986;11.676;2023-06-14T02:49:40;8.63;;;7.47;;
15218;SDS011;15623;53.986;11.676;2023-06-14T02:54:47;7.97;;;7.17;;
15218;SDS011;15623;53.986;11.676;2023-06-14T02:57:19;11.37;;;7.27;;
15218;SDS011;15623;53.986;11.676;2023-06-14T02:59:48;13.53;;;7.33;;
15218;SDS011;15623;53.986;11.676;2023-06-14T03:02:22;13.70;;;7.23;;
15218;SDS011;15623;53.986;11.676;2023-06-14T03:04:51;11.47;;;7.40;;
15218;SDS011;15623;53.986;11.676;2023-06-14T03:07:21;8.77;;;7.57;;
15218;SDS011;15623;53.986;11.676;2023-06-14T03:12:18;8.53;;;7.73;;
15218;SDS011;15623;53.986;11.676;2023-06-14T03:14:48;10.60;;;8.00;;
15218;SDS011;15623;53.986;11.676;2023-06-14T03:17:18;12.17;;;8.10;;
15218;SDS011;15623;53.986;11.676;2023-06-14T03:19:47;12.00;;;7.43;;
15218;SDS011;15623;53.986;11.676;2023-06-14T03:22:16;9.53;;;7.57;;
15218;SDS011;15623;53.986;11.676;2023-06-14T03:24:51;8.33;;;7.43;;
15218;SDS011;15623;53.986;11.676;2023-06-14T03:27:20;8.63;;;7.17;;
15218;SDS011;15623;53.986;11.676;2023-06-14T03:30:01;10.30;;;7.27;;
15218;SDS011;15623;53.986;11.676;2023-06-14T03:32:35;10.00;;;7.13;;
15218;SDS011;15623;53.986;11.676;2023-06-14T03:35:05;9.20;;;5.77;;
15218;SDS011;15623;53.986;11.676;2023-06-14T03:37:32;7.03;;;6.27;;
15218;SDS011;15623;53.986;11.676;2023-06-14T03:40:02;7.13;;;6.00;;
15218;SDS011;15623;53.986;11.676;2023-06-14T03:42:32;13.73;;;5.57;;
15218;SDS011;15623;53.986;11.676;2023-06-14T03:45:15;8.80;;;5.50;;
15218;SDS011;15623;53.986;11.676;2023-06-14T03:47:43;5.80;;;5.30;;
15218;SDS011;15623;53.986;11.676;2023-06-14T03:52:43;11.77;;;4.87;;
15218;SDS011;15623;53.986;11.676;2023-06-14T03:55:12;9.03;;;4.73;;
15218;SDS011;15623;53.986;11.676;2023-06-14T03:57:43;8.13;;;4.90;;
15218;SDS011;15623;53.986;11.676;2023-06-14T04:00:11;6.65;;;4.70;;
15218;SDS011;15623;53.986;11.676;2023-06-14T04:05:16;7.43;;;5.20;;
15218;SDS011;15623;53.986;11.676;2023-06-14T04:07:44;7.65;;;5.15;;
15218;SDS011;15623;53.986;11.676;2023-06-14T04:10:20;4.85;;;4.45;;
15218;SDS011;15623;53.986;11.676;2023-06-14T04:12:48;5.13;;;4.50;;
15218;SDS011;15623;53.986;11.676;2023-06-14T04:15:17;7.22;;;4.72;;
15218;SDS011;15623;53.986;11.676;2023-06-14T04:17:46;8.43;;;4.57;;
15218;SDS011;15623;53.986;11.676;2023-06-14T04:20:19;6.53;;;4.78;;
15218;SDS011;15623;53.986;11.676;2023-06-14T04:22:57;6.03;;;4.60;;
15218;SDS011;15623;53.986;11.676;2023-06-14T04:25:26;4.45;;;3.92;;
15218;SDS011;15623;53.986;11.676;2023-06-14T04:28:03;6.45;;;4.53;;
15218;SDS011;15623;53.986;11.676;2023-06-14T04:30:31;4.63;;;4.15;;
15218;SDS011;15623;53.986;11.676;2023-06-14T04:33:05;5.45;;;4.47;;
15218;SDS011;15623;53.986;11.676;2023-06-14T04:35:35;5.32;;;4.13;;
15218;SDS011;15623;53.986;11.676;2023-06-14T04:38:12;8.00;;;4.20;;
15218;SDS011;15623;53.986;11.676;2023-06-14T04:40:48;4.35;;;3.95;;
15218;SDS011;15623;53.986;11.676;2023-06-14T04:45:54;5.47;;;3.70;;
15218;SDS011;15623;53.986;11.676;2023-06-14T04:48:23;8.25;;;3.72;;
15218;SDS011;15623;53.986;11.676;2023-06-14T04:50:56;7.25;;;4.10;;
15218;SDS011;15623;53.986;11.676;2023-06-14T04:53:30;11.70;;;4.10;;
15218;SDS011;15623;53.986;11.676;2023-06-14T04:55:58;7.38;;;4.50;;
15218;SDS011;15623;53.986;11.676;2023-06-14T04:58:27;4.70;;;4.03;;
15218;SDS011;15623;53.986;11.676;2023-06-14T05:00:55;4.60;;;4.20;;
15218;SDS011;15623;53.986;11.676;2023-06-14T05:03:26;8.27;;;4.18;;
15218;SDS011;15623;53.986;11.676;2023-06-14T05:11:01;6.53;;;3.90;;
15218;SDS011;15623;53.986;11.676;2023-06-14T05:13:29;5.65;;;4.07;;
15218;SDS011;15623;53.986;11.676;2023-06-14T05:15:59;8.73;;;4.85;;
15218;SDS011;15623;53.986;11.676;2023-06-14T05:18:37;6.45;;;3.97;;
15218;SDS011;15623;53.986;11.676;2023-06-14T05:21:19;4.00;;;3.60;;
15218;SDS011;15623;53.986;11.676;2023-06-14T05:23:47;7.82;;;3.60;;
15218;SDS011;15623;53.986;11.676;2023-06-14T05:26:17;7.72;;;3.95;;
15218;SDS011;15623;53.986;11.676;2023-06-14T05:28:45;5.57;;;3.83;;
15218;SDS011;15623;53.986;11.676;2023-06-14T05:31:20;6.00;;;3.80;;
15218;SDS011;15623;53.986;11.676;2023-06-14T05:33:47;5.07;;;3.50;;
15218;SDS011;15623;53.986;11.676;2023-06-14T05:36:15;9.70;;;4.18;;
15218;SDS011;15623;53.986;11.676;2023-06-14T05:38:47;3.90;;;3.50;;
15218;SDS011;15623;53.986;11.676;2023-06-14T05:41:19;4.18;;;3.60;;
15218;SDS011;15623;53.986;11.676;2023-06-14T05:43:48;3.95;;;3.50;;
15218;SDS011;15623;53.986;11.676;2023-06-14T05:46:15;4.57;;;3.50;;
15218;SDS011;15623;53.986;11.676;2023-06-14T05:48:47;4.57;;;3.53;;
15218;SDS011;15623;53.986;11.676;2023-06-14T05:53:57;6.32;;;3.47;;
15218;SDS011;15623;53.986;11.676;2023-06-14T05:56:28;4.05;;;3.38;;
15218;SDS011;15623;53.986;11.676;2023-06-14T05:58:56;4.40;;;3.33;;
15218;SDS011;15623;53.986;11.676;2023-06-14T06:01:30;6.22;;;3.80;;
15218;SDS011;15623;53.986;11.676;2023-06-14T06:04:12;6.75;;;3.40;;
15218;SDS011;15623;53.986;11.676;2023-06-14T06:06:48;4.93;;;3.13;;
15218;SDS011;15623;53.986;11.676;2023-06-14T06:09:16;3.50;;;3.08;;
15218;SDS011;15623;53.986;11.676;2023-06-14T06:12:01;3.75;;;3.13;;
15218;SDS011;15623;53.986;11.676;2023-06-14T06:17:02;6.35;;;3.50;;
15218;SDS011;15623;53.986;11.676;2023-06-14T06:19:29;5.68;;;3.20;;
15218;SDS011;15623;53.986;11.676;2023-06-14T06:21:58;4.88;;;3.72;;
15218;SDS011;15623;53.986;11.676;2023-06-14T06:24:25;3.35;;;3.10;;
15218;SDS011;15623;53.986;11.676;2023-06-14T06:26:55;4.38;;;3.30;;
15218;SDS011;15623;53.986;11.676;2023-06-14T06:29:25;4.35;;;3.30;;
15218;SDS011;15623;53.986;11.676;2023-06-14T06:31:52;3.75;;;3.17;;
15218;SDS011;15623;53.986;11.676;2023-06-14T06:34:28;3.25;;;2.95;;
15218;SDS011;15623;53.986;11.676;2023-06-14T06:36:56;4.78;;;3.00;;
15218;SDS011;15623;53.986;11.676;2023-06-14T06:39:32;3.40;;;3.00;;
15218;SDS011;15623;53.986;11.676;2023-06-14T06:42:00;3.35;;;3.03;;
15218;SDS011;15623;53.986;11.676;2023-06-14T06:44:38;5.22;;;3.30;;
15218;SDS011;15623;53.986;11.676;2023-06-14T06:47:07;6.78;;;2.95;;
15218;SDS011;15623;53.986;11.676;2023-06-14T06:49:34;3.33;;;3.00;;
15218;SDS011;15623;53.986;11.676;2023-06-14T06:52:05;6.13;;;3.40;;
15218;SDS011;15623;53.986;11.676;2023-06-14T06:54:40;4.18;;;3.00;;
15218;SDS011;15623;53.986;11.676;2023-06-14T06:57:09;3.33;;;3.03;;
15218;SDS011;15623;53.986;11.676;2023-06-14T06:59:46;8.70;;;3.17;;
15218;SDS011;15623;53.986;11.676;2023-06-14T07:02:19;7.75;;;3.20;;
15218;SDS011;15623;53.986;11.676;2023-06-14T07:04:48;3.58;;;3.13;;
15218;SDS011;15623;53.986;11.676;2023-06-14T07:07:17;5.57;;;2.80;;
15218;SDS011;15623;53.986;11.676;2023-06-14T07:09:46;5.30;;;3.35;;
15218;SDS011;15623;53.986;11.676;2023-06-14T07:12:23;6.05;;;3.33;;
15218;SDS011;15623;53.986;11.676;2023-06-14T07:17:26;3.97;;;3.30;;
15218;SDS011;15623;53.986;11.676;2023-06-14T07:19:53;3.38;;;2.67;;
15218;SDS011;15623;53.986;11.676;2023-06-14T07:22:22;3.85;;;3.08;;
15218;SDS011;15623;53.986;11.676;2023-06-14T07:27:37;4.53;;;3.40;;
15218;SDS011;15623;53.986;11.676;2023-06-14T07:30:06;5.55;;;3.03;;
15218;SDS011;15623;53.986;11.676;2023-06-14T07:32:36;3.30;;;3.03;;
15218;SDS011;15623;53.986;11.676;2023-06-14T07:35:05;6.13;;;3.20;;
15218;SDS011;15623;53.986;11.676;2023-06-14T07:37:46;3.85;;;3.25;;
15218;SDS011;15623;53.986;11.676;2023-06-14T07:40:15;7.78;;;3.10;;
15218;SDS011;15623;53.986;11.676;2023-06-14T07:42:42;6.78;;;3.53;;
15218;SDS011;15623;53.986;11.676;2023-06-14T07:45:14;5.90;;;3.38;;
15218;SDS011;15623;53.986;11.676;2023-06-14T07:47:49;5.10;;;3.10;;
15218;SDS011;15623;53.986;11.676;2023-06-14T07:50:27;5.32;;;3.00;;
15218;SDS011;15623;53.986;11.676;2023-06-14T07:52:54;3.50;;;3.20;;
15218;SDS011;15623;53.986;11.676;2023-06-14T07:55:22;7.88;;;3.17;;
15218;SDS011;15623;53.986;11.676;2023-06-14T07:58:00;3.08;;;2.78;;
15218;SDS011;15623;53.986;11.676;2023-06-14T08:00:30;4.25;;;2.92;;
15218;SDS011;15623;53.986;11.676;2023-06-14T08:02:59;6.55;;;2.85;;
15218;SDS011;15623;53.986;11.676;2023-06-14T08:07:59;2.97;;;2.65;;
15218;SDS011;15623;53.986;11.676;2023-06-14T08:10:40;2.88;;;2.50;;
15218;SDS011;15623;53.986;11.676;2023-06-14T08:13:14;3.30;;;2.83;;
15218;SDS011;15623;53.986;11.676;2023-06-14T08:15:56;3.38;;;3.08;;
15218;SDS011;15623;53.986;11.676;2023-06-14T08:18:25;6.63;;;2.72;;
15218;SDS011;15623;53.986;11.676;2023-06-14T08:20:57;7.00;;;2.80;;
15218;SDS011;15623;53.986;11.676;2023-06-14T08:23:30;3.30;;;2.90;;
15218;SDS011;15623;53.986;11.676;2023-06-14T08:26:00;3.78;;;2.90;;
15218;SDS011;15623;53.986;11.676;2023-06-14T08:28:31;3.95;;;3.08;;
15218;SDS011;15623;53.986;11.676;2023-06-14T08:30:58;3.22;;;2.92;;
15218;SDS011;15623;53.986;11.676;2023-06-14T08:33:32;3.83;;;2.83;;
15218;SDS011;15623;53.986;11.676;2023-06-14T08:36:01;5.22;;;3.22;;
15218;SDS011;15623;53.986;11.676;2023-06-14T08:38:37;5.57;;;3.10;;
15218;SDS011;15623;53.986;11.676;2023-06-14T08:41:06;4.88;;;2.90;;
15218;SDS011;15623;53.986;11.676;2023-06-14T08:43:42;5.95;;;3.10;;
15218;SDS011;15623;53.986;11.676;2023-06-14T08:46:09;5.90;;;3.03;;
15218;SDS011;15623;53.986;11.676;2023-06-14T08:48:47;4.20;;;3.00;;
15218;SDS011;15623;53.986;11.676;2023-06-14T08:51:20;4.75;;;2.55;;
15218;SDS011;15623;53.986;11.676;2023-06-14T08:53:52;9.35;;;3.08;;
15218;SDS011;15623;53.986;11.676;2023-06-14T08:56:25;5.28;;;2.70;;
15218;SDS011;15623;53.986;11.676;2023-06-14T08:58:56;4.85;;;2.65;;
15218;SDS011;15623;53.986;11.676;2023-06-14T09:01:27;4.22;;;2.63;;
15218;SDS011;15623;53.986;11.676;2023-06-14T09:04:01;3.08;;;2.85;;
15218;SDS011;15623;53.986;11.676;2023-06-14T09:09:20;3.35;;;2.63;;
15218;SDS011;15623;53.986;11.676;2023-06-14T09:11:49;3.65;;;2.70;;
15218;SDS011;15623;53.986;11.676;2023-06-14T09:14:18;4.05;;;2.80;;
15218;SDS011;15623;53.986;11.676;2023-06-14T09:16:47;3.92;;;2.80;;
15218;SDS011;15623;53.986;11.676;2023-06-14T09:19:32;3.03;;;2.83;;
15218;SDS011;15623;53.986;11.676;2023-06-14T09:24:53;3.08;;;2.75;;
15218;SDS011;15623;53.986;11.676;2023-06-14T09:27:25;3.22;;;2.90;;
15218;SDS011;15623;53.986;11.676;2023-06-14T09:35:22;3.03;;;2.78;;
15218;SDS011;15623;53.986;11.676;2023-06-14T09:37:49;3.17;;;2.92;;
15218;SDS011;15623;53.986;11.676;2023-06-14T09:40:20;3.20;;;2.92;;
15218;SDS011;15623;53.986;11.676;2023-06-14T09:42:47;3.08;;;2.70;;
15218;SDS011;15623;53.986;11.676;2023-06-14T09:45:15;3.53;;;2.70;;
15218;SDS011;15623;53.986;11.676;2023-06-14T09:47:49;4.32;;;2.88;;
15218;SDS011;15623;53.986;11.676;2023-06-14T09:50:29;3.15;;;2.83;;
15218;SDS011;15623;53.986;11.676;2023-06-14T09:52:58;2.97;;;2.67;;
15218;SDS011;15623;53.986;11.676;2023-06-14T09:55:36;7.82;;;3.03;;
15218;SDS011;15623;53.986;11.676;2023-06-14T09:58:07;2.78;;;2.50;;
15218;SDS011;15623;53.986;11.676;2023-06-14T10:00:39;4.90;;;3.00;;
15218;SDS011;15623;53.986;11.676;2023-06-14T10:03:13;3.22;;;2.50;;
15218;SDS011;15623;53.986;11.676;2023-06-14T10:05:45;3.22;;;2.80;;
15218;SDS011;15623;53.986;11.676;2023-06-14T10:08:16;3.63;;;2.50;;
15218;SDS011;15623;53.986;11.676;2023-06-14T10:10:47;6.07;;;2.95;;
15218;SDS011;15623;53.986;11.676;2023-06-14T10:13:15;3.50;;;2.63;;
15218;SDS011;15623;53.986;11.676;2023-06-14T10:15:47;2.88;;;2.67;;
15218;SDS011;15623;53.986;11.676;2023-06-14T10:18:18;3.03;;;2.80;;
15218;SDS011;15623;53.986;11.676;2023-06-14T10:20:55;4.25;;;3.30;;
15218;SDS011;15623;53.986;11.676;2023-06-14T10:23:25;4.28;;;2.83;;
15218;SDS011;15623;53.986;11.676;2023-06-14T10:25:54;3.17;;;2.88;;
15218;SDS011;15623;53.986;11.676;2023-06-14T10:28:22;3.42;;;2.97;;
15218;SDS011;15623;53.986;11.676;2023-06-14T10:31:06;3.25;;;2.80;;
15218;SDS011;15623;53.986;11.676;2023-06-14T10:33:36;5.50;;;3.00;;
15218;SDS011;15623;53.986;11.676;2023-06-14T10:36:24;4.45;;;2.90;;
15218;SDS011;15623;53.986;11.676;2023-06-14T10:39:00;5.60;;;3.05;;
15218;SDS011;15623;53.986;11.676;2023-06-14T10:41:29;4.10;;;2.83;;
15218;SDS011;15623;53.986;11.676;2023-06-14T10:46:59;3.28;;;2.90;;
15218;SDS011;15623;53.986;11.676;2023-06-14T10:49:38;3.10;;;2.90;;
15218;SDS011;15623;53.986;11.676;2023-06-14T10:52:23;4.97;;;2.90;;
15218;SDS011;15623;53.986;11.676;2023-06-14T10:55:08;3.97;;;3.20;;
15218;SDS011;15623;53.986;11.676;2023-06-14T10:57:36;5.07;;;2.55;;
15218;SDS011;15623;53.986;11.676;2023-06-14T11:00:06;3.17;;;2.80;;
15218;SDS011;15623;53.986;11.676;2023-06-14T11:05:31;7.63;;;2.50;;
15218;SDS011;15623;53.986;11.676;2023-06-14T11:10:57;5.13;;;2.53;;
15218;SDS011;15623;53.986;11.676;2023-06-14T11:13:27;6.75;;;2.72;;
15218;SDS011;15623;53.986;11.676;2023-06-14T11:15:56;5.10;;;2.30;;
15218;SDS011;15623;53.986;11.676;2023-06-14T11:18:24;2.88;;;2.20;;
15218;SDS011;15623;53.986;11.676;2023-06-14T11:20:53;5.03;;;2.53;;
15218;SDS011;15623;53.986;11.676;2023-06-14T11:23:22;4.50;;;2.63;;
15218;SDS011;15623;53.986;11.676;2023-06-14T11:25:49;2.50;;;2.30;;
15218;SDS011;15623;53.986;11.676;2023-06-14T11:28:20;6.72;;;2.30;;
15218;SDS011;15623;53.986;11.676;2023-06-14T11:36:29;3.97;;;2.15;;
15218;SDS011;15623;53.986;11.676;2023-06-14T11:39:05;6.00;;;2.53;;
15218;SDS011;15623;53.986;11.676;2023-06-14T11:41:41;6.22;;;2.60;;
15218;SDS011;15623;53.986;11.676;2023-06-14T11:44:10;9.15;;;2.70;;
15218;SDS011;15623;53.986;11.676;2023-06-14T11:46:38;4.93;;;2.97;;
15218;SDS011;15623;53.986;11.676;2023-06-14T11:49:07;5.45;;;2.35;;
15218;SDS011;15623;53.986;11.676;2023-06-14T11:51:35;3.83;;;2.00;;
15218;SDS011;15623;53.986;11.676;2023-06-14T11:54:04;4.85;;;2.25;;
15218;SDS011;15623;53.986;11.676;2023-06-14T11:56:34;3.97;;;2.50;;
15218;SDS011;15623;53.986;11.676;2023-06-14T11:59:02;5.95;;;2.20;;
15218;SDS011;15623;53.986;11.676;2023-06-14T12:01:42;4.10;;;2.20;;
15218;SDS011;15623;53.986;11.676;2023-06-14T12:04:10;2.75;;;2.38;;
15218;SDS011;15623;53.986;11.676;2023-06-14T12:06:39;4.95;;;2.38;;
15218;SDS011;15623;53.986;11.676;2023-06-14T12:09:18;6.35;;;2.40;;
15218;SDS011;15623;53.986;11.676;2023-06-14T12:11:51;4.72;;;2.30;;
15218;SDS011;15623;53.986;11.676;2023-06-14T12:14:28;4.25;;;2.50;;
15218;SDS011;15623;53.986;11.676;2023-06-14T12:17:07;6.47;;;2.83;;
15218;SDS011;15623;53.986;11.676;2023-06-14T12:19:41;3.55;;;2.20;;
15218;SDS011;15623;53.986;11.676;2023-06-14T12:22:19;6.18;;;2.50;;
15218;SDS011;15623;53.986;11.676;2023-06-14T12:27:21;5.35;;;2.40;;
15218;SDS011;15623;53.986;11.676;2023-06-14T12:30:00;4.68;;;2.47;;
15218;SDS011;15623;53.986;11.676;2023-06-14T12:32:30;9.75;;;2.60;;
15218;SDS011;15623;53.986;11.676;2023-06-14T12:34:57;2.80;;;2.50;;
15218;SDS011;15623;53.986;11.676;2023-06-14T12:37:26;3.25;;;2.20;;
15218;SDS011;15623;53.986;11.676;2023-06-14T12:39:57;6.95;;;2.50;;
15218;SDS011;15623;53.986;11.676;2023-06-14T12:42:25;5.20;;;2.17;;
15218;SDS011;15623;53.986;11.676;2023-06-14T12:44:57;3.67;;;2.53;;
15218;SDS011;15623;53.986;11.676;2023-06-14T12:47:26;2.70;;;2.40;;
15218;SDS011;15623;53.986;11.676;2023-06-14T12:50:00;3.05;;;2.40;;
15218;SDS011;15623;53.986;11.676;2023-06-14T12:52:29;6.90;;;2.28;;
15218;SDS011;15623;53.986;11.676;2023-06-14T12:57:34;4.15;;;2.22;;
15218;SDS011;15623;53.986;11.676;2023-06-14T13:02:41;4.82;;;2.13;;
15218;SDS011;15623;53.986;11.676;2023-06-14T13:05:10;6.20;;;2.33;;
15218;SDS011;15623;53.986;11.676;2023-06-14T13:07:38;3.67;;;2.22;;
15218;SDS011;15623;53.986;11.676;2023-06-14T13:10:06;4.38;;;2.05;;
15218;SDS011;15623;53.986;11.676;2023-06-14T13:12:34;4.10;;;2.30;;
15218;SDS011;15623;53.986;11.676;2023-06-14T13:15:13;4.72;;;2.65;;
15218;SDS011;15623;53.986;11.676;2023-06-14T13:17:42;6.32;;;2.50;;
15218;SDS011;15623;53.986;11.676;2023-06-14T13:20:21;3.22;;;2.50;;
15218;SDS011;15623;53.986;11.676;2023-06-14T13:22:54;4.82;;;2.45;;
15218;SDS011;15623;53.986;11.676;2023-06-14T13:25:24;3.08;;;2.20;;
15218;SDS011;15623;53.986;11.676;2023-06-14T13:27:52;4.00;;;2.20;;
15218;SDS011;15623;53.986;11.676;2023-06-14T13:30:21;3.28;;;2.33;;
15218;SDS011;15623;53.986;11.676;2023-06-14T13:32:49;5.25;;;2.53;;
15218;SDS011;15623;53.986;11.676;2023-06-14T13:35:28;3.50;;;2.17;;
15218;SDS011;15623;53.986;11.676;2023-06-14T13:37:56;4.60;;;2.30;;
15218;SDS011;15623;53.986;11.676;2023-06-14T13:40:24;6.47;;;2.47;;
15218;SDS011;15623;53.986;11.676;2023-06-14T13:42:52;2.60;;;2.10;;
15218;SDS011;15623;53.986;11.676;2023-06-14T13:45:19;5.22;;;2.50;;
15218;SDS011;15623;53.986;11.676;2023-06-14T13:47:55;2.10;;;1.95;;
15218;SDS011;15623;53.986;11.676;2023-06-14T13:50:26;3.38;;;2.53;;
15218;SDS011;15623;53.986;11.676;2023-06-14T13:52:59;5.85;;;2.40;;
15218;SDS011;15623;53.986;11.676;2023-06-14T13:55:28;3.20;;;2.17;;
15218;SDS011;15623;53.986;11.676;2023-06-14T13:57:56;3.30;;;2.28;;
15218;SDS011;15623;53.986;11.676;2023-06-14T14:00:25;2.50;;;2.30;;
15218;SDS011;15623;53.986;11.676;2023-06-14T14:05:28;5.18;;;2.33;;
15218;SDS011;15623;53.986;11.676;2023-06-14T14:08:00;3.35;;;2.38;;
15218;SDS011;15623;53.986;11.676;2023-06-14T14:10:29;5.93;;;2.67;;
15218;SDS011;15623;53.986;11.676;2023-06-14T14:12:58;4.82;;;2.25;;
15218;SDS011;15623;53.986;11.676;2023-06-14T14:15:37;3.88;;;2.50;;
15218;SDS011;15623;53.986;11.676;2023-06-14T14:18:09;5.90;;;2.15;;
15218;SDS011;15623;53.986;11.676;2023-06-14T14:20:38;4.68;;;2.50;;
15218;SDS011;15623;53.986;11.676;2023-06-14T14:23:07;4.47;;;2.33;;
15218;SDS011;15623;53.986;11.676;2023-06-14T14:25:36;3.20;;;2.10;;
15218;SDS011;15623;53.986;11.676;2023-06-14T14:28:06;2.60;;;2.40;;
15218;SDS011;15623;53.986;11.676;2023-06-14T14:30:39;4.80;;;2.30;;
15218;SDS011;15623;53.986;11.676;2023-06-14T14:33:08;2.65;;;2.10;;
15218;SDS011;15623;53.986;11.676;2023-06-14T14:40:43;5.68;;;2.60;;
15218;SDS011;15623;53.986;11.676;2023-06-14T14:43:11;5.18;;;2.38;;
15218;SDS011;15623;53.986;11.676;2023-06-14T14:45:40;4.35;;;2.67;;
15218;SDS011;15623;53.986;11.676;2023-06-14T14:48:12;6.75;;;2.20;;
15218;SDS011;15623;53.986;11.676;2023-06-14T14:50:41;3.70;;;2.03;;
15218;SDS011;15623;53.986;11.676;2023-06-14T14:53:11;3.58;;;2.30;;
15218;SDS011;15623;53.986;11.676;2023-06-14T14:55:45;2.53;;;2.22;;
15218;SDS011;15623;53.986;11.676;2023-06-14T15:01:09;4.50;;;2.38;;
15218;SDS011;15623;53.986;11.676;2023-06-14T15:03:39;5.40;;;2.47;;
15218;SDS011;15623;53.986;11.676;2023-06-14T15:08:44;2.40;;;2.20;;
15218;SDS011;15623;53.986;11.676;2023-06-14T15:14:01;3.42;;;2.40;;
15218;SDS011;15623;53.986;11.676;2023-06-14T15:16:29;4.15;;;2.42;;
15218;SDS011;15623;53.986;11.676;2023-06-14T15:24:07;3.53;;;2.40;;
15218;SDS011;15623;53.986;11.676;2023-06-14T15:26:36;5.40;;;2.35;;
15218;SDS011;15623;53.986;11.676;2023-06-14T15:29:13;7.00;;;2.55;;
15218;SDS011;15623;53.986;11.676;2023-06-14T15:31:40;4.07;;;2.45;;
15218;SDS011;15623;53.986;11.676;2023-06-14T15:34:13;4.93;;;2.45;;
15218;SDS011;15623;53.986;11.676;2023-06-14T15:36:46;3.03;;;2.20;;
15218;SDS011;15623;53.986;11.676;2023-06-14T15:39:15;3.80;;;2.55;;
15218;SDS011;15623;53.986;11.676;2023-06-14T15:41:46;2.53;;;2.10;;
15218;SDS011;15623;53.986;11.676;2023-06-14T15:44:17;6.95;;;2.30;;
15218;SDS011;15623;53.986;11.676;2023-06-14T15:46:45;3.53;;;2.00;;
15218;SDS011;15623;53.986;11.676;2023-06-14T15:49:16;3.85;;;2.45;;
15218;SDS011;15623;53.986;11.676;2023-06-14T15:51:44;7.70;;;2.50;;
15218;SDS011;15623;53.986;11.676;2023-06-14T15:54:11;3.80;;;2.20;;
15218;SDS011;15623;53.986;11.676;2023-06-14T15:56:52;2.70;;;2.20;;
15218;SDS011;15623;53.986;11.676;2023-06-14T15:59:21;4.60;;;2.30;;
15218;SDS011;15623;53.986;11.676;2023-06-14T16:01:49;5.00;;;2.30;;
15218;SDS011;15623;53.986;11.676;2023-06-14T16:04:17;2.95;;;2.45;;
15218;SDS011;15623;53.986;11.676;2023-06-14T16:06:51;3.08;;;2.28;;
15218;SDS011;15623;53.986;11.676;2023-06-14T16:09:25;3.60;;;2.33;;
15218;SDS011;15623;53.986;11.676;2023-06-14T16:11:55;6.05;;;2.58;;
15218;SDS011;15623;53.986;11.676;2023-06-14T16:14:30;6.68;;;2.40;;
15218;SDS011;15623;53.986;11.676;2023-06-14T16:17:05;3.25;;;2.40;;
15218;SDS011;15623;53.986;11.676;2023-06-14T16:19:46;4.32;;;2.30;;
15218;SDS011;15623;53.986;11.676;2023-06-14T16:22:22;2.47;;;2.28;;
15218;SDS011;15623;53.986;11.676;2023-06-14T16:24:57;2.63;;;2.28;;
15218;SDS011;15623;53.986;11.676;2023-06-14T16:27:36;3.35;;;2.40;;
15218;SDS011;15623;53.986;11.676;2023-06-14T16:30:06;5.15;;;2.33;;
15218;SDS011;15623;53.986;11.676;2023-06-14T16:32:34;3.95;;;2.30;;
15218;SDS011;15623;53.986;11.676;2023-06-14T16:37:33;2.40;;;2.20;;
15218;SDS011;15623;53.986;11.676;2023-06-14T16:40:01;2.60;;;2.40;;
15218;SDS011;15623;53.986;11.676;2023-06-14T16:42:29;6.32;;;3.05;;
15218;SDS011;15623;53.986;11.676;2023-06-14T16:44:57;2.60;;;2.40;;